Terminal Aerodrome Forecast
Issued by NWS Charleston, SC

Home | Current Version | Previous Version | Text Only | Print | Product List | Glossary On
Versions: 1 2 3 4 5 6 7 8 9 10 11 12 13
000
FTUS42 KCHS 052336
TAFCHS
TAF
KCHS 052336Z 0600/0624 10008KT P6SM SCT250
     FM060400 06006KT P6SM FEW020
     FM061400 06012G20KT P6SM SCT025 BKN050=

USA.gov is the U.S. government's official web portal to all federal, state and local government web resources and services.